Terminal Aerodrome Forecast
Issued by NWS Blacksburg, VA

Current Version | Previous Version | Text Only | Print | Product List | Glossary Off
Versions: 1 2 3 4 5 6 7 8 9 10 11 12 13 14 15 16 17 18 19 20 21 22 23 24 25 26 27 28 29 30 31 32 33 34

000
FTUS41 KRNK 140027 AAB
TAFBLF
TAF AMD
KBLF 140027Z 1400/1424 VRB03KT 1SM -RA BR OVC003
      TEMPO 1400/1402 1/4SM FG OVC002
     FM140900 18006KT 4SM -RA BR OVC008
     FM141600 23007KT 6SM -RA OVC015=

USA.gov is the U.S. government's official web portal to all federal, state and local government web resources and services.